Time;durP1;ratioP1;P1;durP2;ratioP2;P2;SDS_P1;SDS_P2;PMS_P1;PMS_P2;Temp;Humidity;BMP_temperature;BMP_pressure;BME280_temperature;BME280_humidity;BME280_pressure;Samples;Min_cycle;Max_cycle;Signal;HPM_P1;HPM_P2
2023/04/29 00:00:43;;;;;;;;;;;10.60;99.90;;;;;;8391111;28;19976;-71
2023/04/29 00:04:45;;;;;;;;;;;10.50;99.90;;;;;;8389786;28;20015;-70
2023/04/29 00:08:47;;;;;;;;;;;10.50;99.90;;;;;;8394560;28;19924;-71
2023/04/29 00:12:50;;;;;;;;;;;10.50;99.90;;;;;;8385392;28;19983;-70
2023/04/29 00:16:52;;;;;;;;;;;10.40;99.90;;;;;;8398767;28;19929;-70
2023/04/29 00:20:53;;;;;;;;;;;10.50;99.90;;;;;;8380380;28;19925;-70
2023/04/29 00:24:55;;;;;;;;;;;10.40;99.90;;;;;;8366361;28;19925;-70
2023/04/29 00:28:57;;;;;;;;;;;10.40;99.90;;;;;;8397634;28;19931;-70
2023/04/29 00:32:58;;;;;;;;;;;10.40;99.90;;;;;;8384669;28;20007;-71
2023/04/29 00:37:00;;;;;;;;;;;10.40;99.90;;;;;;8375482;28;19951;-71
2023/04/29 00:41:02;;;;;;;;;;;10.40;99.90;;;;;;8395044;28;19928;-70
2023/04/29 00:45:04;;;;;;;;;;;10.40;99.90;;;;;;8368950;28;19967;-70
2023/04/29 00:49:09;;;;;;;;;;;10.40;99.90;;;;;;8363674;28;19925;-70
2023/04/29 00:53:14;;;;;;;;;;;10.40;99.90;;;;;;8348923;28;19924;-71
2023/04/29 00:57:16;;;;;;;;;;;10.40;99.90;;;;;;8373719;28;19925;-70
2023/04/29 01:01:18;;;;;;;;;;;10.40;99.90;;;;;;8356530;28;20443;-70
2023/04/29 01:05:19;;;;;;;;;;;10.40;99.90;;;;;;8389880;28;19925;-70
2023/04/29 01:09:40;;;;;;;;;;;10.30;99.90;;;;;;8388177;28;20402;-70
2023/04/29 01:13:47;;;;;;;;;;;10.30;99.90;;;;;;8395260;28;19928;-70
2023/04/29 01:17:54;;;;;;;;;;;10.30;99.90;;;;;;8395872;28;19928;-71
2023/04/29 01:21:56;;;;;;;;;;;10.30;99.90;;;;;;8390546;28;19932;-70
2023/04/29 01:25:58;;;;;;;;;;;10.30;99.90;;;;;;8395416;28;19928;-70
2023/04/29 01:30:18;;;;;;;;;;;10.30;99.90;;;;;;8378218;28;19940;-70
2023/04/29 01:34:33;;;;;;;;;;;10.30;99.90;;;;;;8378578;28;20295;-70
2023/04/29 01:38:52;;;;;;;;;;;10.30;99.90;;;;;;8373632;28;19991;-70
2023/04/29 01:43:02;;;;;;;;;;;10.30;99.90;;;;;;8389113;28;19964;-70
2023/04/29 01:47:04;;;;;;;;;;;10.30;99.90;;;;;;8377200;28;19928;-70
2023/04/29 01:51:06;;;;;;;;;;;10.30;99.90;;;;;;8390878;28;19970;-70
2023/04/29 01:55:07;;;;;;;;;;;10.20;99.90;;;;;;8395335;28;20023;-70
2023/04/29 01:59:09;;;;;;;;;;;10.20;99.90;;;;;;8378752;28;19934;-71
2023/04/29 02:03:11;;;;;;;;;;;10.20;99.90;;;;;;8382807;28;20011;-70
2023/04/29 02:07:13;;;;;;;;;;;10.30;99.90;;;;;;8365615;28;19928;-70
2023/04/29 02:11:15;;;;;;;;;;;10.20;99.90;;;;;;8370940;28;20024;-70
2023/04/29 02:15:16;;;;;;;;;;;10.20;99.90;;;;;;8391272;28;20472;-70
2023/04/29 02:19:18;;;;;;;;;;;10.20;99.90;;;;;;8392242;28;19993;-70
2023/04/29 02:23:19;;;;;;;;;;;10.30;99.90;;;;;;8405196;28;19991;-71
2023/04/29 02:27:21;;;;;;;;;;;10.30;99.90;;;;;;8395423;28;19965;-70
2023/04/29 02:31:23;;;;;;;;;;;10.30;99.90;;;;;;8397383;28;19928;-70
2023/04/29 02:35:25;;;;;;;;;;;10.30;99.90;;;;;;8378411;28;19925;-70
2023/04/29 02:39:26;;;;;;;;;;;10.20;99.90;;;;;;8383063;28;20479;-70
2023/04/29 02:43:30;;;;;;;;;;;10.20;99.90;;;;;;8373538;28;20399;-70
2023/04/29 02:47:31;;;;;;;;;;;10.30;99.90;;;;;;8407189;28;19957;-70
2023/04/29 02:51:33;;;;;;;;;;;10.30;99.90;;;;;;8384276;28;20381;-70
2023/04/29 02:55:35;;;;;;;;;;;10.30;99.90;;;;;;8394346;28;19924;-70
2023/04/29 02:59:37;;;;;;;;;;;10.30;99.90;;;;;;8405148;28;20341;-70
2023/04/29 03:03:38;;;;;;;;;;;10.30;99.90;;;;;;8389720;28;19960;-70
2023/04/29 03:07:40;;;;;;;;;;;10.30;99.90;;;;;;8376148;28;19929;-71
2023/04/29 03:11:42;;;;;;;;;;;10.30;99.90;;;;;;8410695;28;19939;-70
2023/04/29 03:15:44;;;;;;;;;;;10.30;99.90;;;;;;8389717;28;20015;-70
2023/04/29 03:19:45;;;;;;;;;;;10.30;99.90;;;;;;8401083;28;19943;-70
2023/04/29 03:23:47;;;;;;;;;;;10.30;99.90;;;;;;8389319;28;19932;-70
2023/04/29 03:27:49;;;;;;;;;;;10.30;99.90;;;;;;8385719;28;19925;-71
2023/04/29 03:31:51;;;;;;;;;;;10.30;99.90;;;;;;8404984;28;19970;-70
2023/04/29 03:35:52;;;;;;;;;;;10.30;99.90;;;;;;8390274;28;20039;-70
2023/04/29 03:39:54;;;;;;;;;;;10.30;99.90;;;;;;8377427;28;19936;-70
2023/04/29 03:43:59;;;;;;;;;;;10.30;99.90;;;;;;8390999;28;19971;-71
2023/04/29 03:48:02;;;;;;;;;;;10.20;99.90;;;;;;8395540;28;19925;-70
2023/04/29 03:52:04;;;;;;;;;;;10.20;99.90;;;;;;8394209;28;19928;-70
2023/04/29 03:56:05;;;;;;;;;;;10.20;99.90;;;;;;8391534;28;19928;-70
2023/04/29 04:00:07;;;;;;;;;;;10.20;99.90;;;;;;8390930;28;19931;-70
2023/04/29 04:04:09;;;;;;;;;;;10.30;99.90;;;;;;8388061;28;19925;-70
2023/04/29 04:08:11;;;;;;;;;;;10.20;99.90;;;;;;8380379;28;19928;-70
2023/04/29 04:12:12;;;;;;;;;;;10.30;99.90;;;;;;8387522;28;19986;-70
2023/04/29 04:16:14;;;;;;;;;;;10.30;99.90;;;;;;8402175;28;19977;-70
2023/04/29 04:20:16;;;;;;;;;;;10.30;99.90;;;;;;8385098;28;20371;-70
2023/04/29 04:24:17;;;;;;;;;;;10.30;99.90;;;;;;8391845;28;19933;-70
2023/04/29 04:28:19;;;;;;;;;;;10.30;99.90;;;;;;8394420;28;20288;-70
2023/04/29 04:32:22;;;;;;;;;;;10.30;99.90;;;;;;8385721;28;19931;-70
2023/04/29 04:36:24;;;;;;;;;;;10.30;99.90;;;;;;8381609;28;19959;-70
2023/04/29 04:40:26;;;;;;;;;;;10.30;99.90;;;;;;8382555;28;19932;-70
2023/04/29 04:44:29;;;;;;;;;;;10.30;99.90;;;;;;8371457;28;20019;-70
2023/04/29 04:48:31;;;;;;;;;;;10.30;99.90;;;;;;8388031;28;20268;-70
2023/04/29 04:52:32;;;;;;;;;;;10.30;99.90;;;;;;8385150;28;19928;-71
2023/04/29 04:56:36;;;;;;;;;;;10.30;99.90;;;;;;8381291;28;19924;-70
2023/04/29 05:00:42;;;;;;;;;;;10.30;99.90;;;;;;8387819;28;19938;-70
2023/04/29 05:04:44;;;;;;;;;;;10.40;99.90;;;;;;8362032;28;20384;-70
2023/04/29 05:08:46;;;;;;;;;;;10.40;99.90;;;;;;8396493;28;21082;-70
2023/04/29 05:12:47;;;;;;;;;;;10.40;99.90;;;;;;8373155;28;19928;-70
2023/04/29 05:16:50;;;;;;;;;;;10.50;99.90;;;;;;8380754;28;19924;-70
2023/04/29 05:20:52;;;;;;;;;;;10.50;99.90;;;;;;8396075;28;20435;-70
2023/04/29 05:24:59;;;;;;;;;;;10.50;99.90;;;;;;8409751;28;19924;-70
2023/04/29 05:29:00;;;;;;;;;;;10.60;99.90;;;;;;8376921;28;19978;-70
2023/04/29 05:33:02;;;;;;;;;;;10.60;99.90;;;;;;8391311;28;19928;-70
2023/04/29 05:37:04;;;;;;;;;;;10.70;99.90;;;;;;8407481;28;19929;-70
2023/04/29 05:41:05;;;;;;;;;;;10.80;99.90;;;;;;8397548;28;19929;-70
2023/04/29 05:45:07;;;;;;;;;;;10.80;99.90;;;;;;8395739;28;19931;-70
2023/04/29 05:49:09;;;;;;;;;;;10.90;99.90;;;;;;8402080;28;20376;-71
2023/04/29 05:53:11;;;;;;;;;;;10.90;99.90;;;;;;8381194;28;20005;-70
2023/04/29 05:57:15;;;;;;;;;;;11.00;99.90;;;;;;8388064;28;19935;-70
2023/04/29 06:01:17;;;;;;;;;;;11.10;99.90;;;;;;8388898;28;19934;-70
2023/04/29 06:05:19;;;;;;;;;;;11.10;99.90;;;;;;8374665;28;20334;-70
2023/04/29 06:09:21;;;;;;;;;;;11.20;99.90;;;;;;8388141;28;19931;-70
2023/04/29 06:13:29;;;;;;;;;;;11.20;99.90;;;;;;8382162;28;19931;-70
2023/04/29 06:17:31;;;;;;;;;;;11.30;99.90;;;;;;8400635;28;19925;-70
2023/04/29 06:21:33;;;;;;;;;;;11.30;99.90;;;;;;8385193;28;19974;-70
2023/04/29 06:25:34;;;;;;;;;;;11.30;99.90;;;;;;8385082;28;20007;-70
2023/04/29 06:29:36;;;;;;;;;;;11.40;99.90;;;;;;8400476;28;19925;-70
2023/04/29 06:33:38;;;;;;;;;;;11.60;99.90;;;;;;8375146;28;19924;-71
2023/04/29 06:37:40;;;;;;;;;;;11.70;99.90;;;;;;8380146;28;20407;-70
2023/04/29 06:41:41;;;;;;;;;;;11.80;99.90;;;;;;8379923;28;19929;-70
2023/04/29 06:45:46;;;;;;;;;;;11.80;99.90;;;;;;8384823;28;19944;-71
2023/04/29 06:49:48;;;;;;;;;;;11.80;99.90;;;;;;8386915;28;19951;-71
2023/04/29 06:53:50;;;;;;;;;;;11.70;99.90;;;;;;8376448;28;19924;-70
2023/04/29 06:57:51;;;;;;;;;;;11.80;99.90;;;;;;8378316;28;19932;-70
2023/04/29 07:01:53;;;;;;;;;;;12.10;99.90;;;;;;8369877;28;19967;-70
2023/04/29 07:05:54;;;;;;;;;;;12.30;99.90;;;;;;8376090;28;19964;-70
2023/04/29 07:09:56;;;;;;;;;;;12.60;99.90;;;;;;8342542;28;1884627;-70
2023/04/29 07:13:58;;;;;;;;;;;12.70;99.90;;;;;;8401636;28;20011;-70
2023/04/29 07:17:59;;;;;;;;;;;12.80;99.90;;;;;;8392662;28;20371;-70
2023/04/29 07:22:02;;;;;;;;;;;12.90;99.90;;;;;;8386062;28;19981;-70
2023/04/29 07:26:08;;;;;;;;;;;13.10;99.90;;;;;;8394234;28;19932;-70
2023/04/29 07:30:09;;;;;;;;;;;13.40;99.90;;;;;;8386721;28;19978;-70
2023/04/29 07:34:11;;;;;;;;;;;13.60;99.90;;;;;;8389181;28;19924;-71
2023/04/29 07:38:13;;;;;;;;;;;13.70;99.90;;;;;;8401624;28;19928;-71
2023/04/29 07:42:15;;;;;;;;;;;13.70;99.90;;;;;;8405323;28;19939;-70
2023/04/29 07:46:17;;;;;;;;;;;13.60;99.90;;;;;;8390490;28;19971;-70
2023/04/29 07:50:18;;;;;;;;;;;13.50;99.90;;;;;;8377796;28;19935;-70
2023/04/29 07:54:22;;;;;;;;;;;13.40;99.90;;;;;;8390456;28;20406;-70
2023/04/29 07:58:24;;;;;;;;;;;13.30;99.90;;;;;;8406756;28;20055;-70
2023/04/29 08:02:25;;;;;;;;;;;13.30;99.90;;;;;;8392105;28;20336;-70
2023/04/29 08:06:27;;;;;;;;;;;13.30;99.90;;;;;;8381102;28;19960;-70
2023/04/29 08:10:29;;;;;;;;;;;13.50;99.90;;;;;;8362336;28;20493;-70
2023/04/29 08:14:31;;;;;;;;;;;13.50;99.90;;;;;;8375657;28;20387;-70
2023/04/29 08:18:33;;;;;;;;;;;13.50;99.90;;;;;;8370970;28;19933;-70
2023/04/29 08:22:35;;;;;;;;;;;13.40;99.90;;;;;;8357602;28;19925;-71
2023/04/29 08:26:38;;;;;;;;;;;13.40;99.90;;;;;;8370997;28;19931;-70
2023/04/29 08:30:40;;;;;;;;;;;13.40;99.90;;;;;;8401789;28;20057;-70
2023/04/29 08:34:43;;;;;;;;;;;13.40;99.90;;;;;;8379085;28;20446;-70
2023/04/29 08:38:45;;;;;;;;;;;13.50;99.90;;;;;;8360918;28;19925;-71
2023/04/29 08:42:47;;;;;;;;;;;14.00;99.90;;;;;;8366854;28;20291;-70
2023/04/29 08:46:49;;;;;;;;;;;14.20;99.90;;;;;;8365210;28;19925;-70
2023/04/29 08:50:51;;;;;;;;;;;14.30;99.90;;;;;;8372687;28;19924;-70
2023/04/29 08:54:53;;;;;;;;;;;14.20;99.90;;;;;;8367612;28;19929;-70
2023/04/29 08:58:57;;;;;;;;;;;14.40;99.90;;;;;;8363686;28;20281;-70
2023/04/29 09:02:59;;;;;;;;;;;14.70;99.90;;;;;;8351510;28;19968;-71
2023/04/29 09:07:01;;;;;;;;;;;15.00;99.90;;;;;;8338021;28;19925;-70
2023/04/29 09:11:08;;;;;;;;;;;15.00;99.90;;;;;;8402490;28;20393;-70
2023/04/29 09:15:10;;;;;;;;;;;14.90;99.90;;;;;;8402992;28;19931;-70
2023/04/29 09:19:27;;;;;;;;;;;14.70;99.90;;;;;;8404591;28;19975;-70
2023/04/29 09:23:38;;;;;;;;;;;14.50;99.90;;;;;;8389319;28;19928;-70
2023/04/29 09:27:40;;;;;;;;;;;14.50;99.90;;;;;;8409979;28;19924;-70
2023/04/29 09:31:41;;;;;;;;;;;14.50;99.90;;;;;;8395281;28;19924;-70
2023/04/29 09:35:43;;;;;;;;;;;14.60;99.90;;;;;;8402670;28;19928;-71
2023/04/29 09:39:45;;;;;;;;;;;14.80;99.90;;;;;;8401607;28;19924;-70
2023/04/29 09:44:02;;;;;;;;;;;14.90;99.90;;;;;;8379695;28;20570;-70
2023/04/29 09:48:05;;;;;;;;;;;15.00;99.90;;;;;;8385314;28;19928;-70
2023/04/29 09:52:11;;;;;;;;;;;15.40;99.90;;;;;;8392010;28;19924;-71
2023/04/29 09:56:13;;;;;;;;;;;15.90;99.90;;;;;;8398862;28;19947;-71
2023/04/29 10:00:14;;;;;;;;;;;16.20;99.90;;;;;;8384961;28;19939;-71
2023/04/29 10:04:17;;;;;;;;;;;16.10;99.90;;;;;;8380482;28;19931;-70
2023/04/29 10:08:20;;;;;;;;;;;16.30;99.90;;;;;;8401986;28;19947;-71
2023/04/29 10:12:23;;;;;;;;;;;16.80;99.90;;;;;;8377156;28;19925;-71
2023/04/29 10:16:24;;;;;;;;;;;16.70;99.90;;;;;;8398986;28;19933;-71
2023/04/29 10:20:27;;;;;;;;;;;16.50;99.90;;;;;;8394580;28;20291;-70
2023/04/29 10:24:30;;;;;;;;;;;16.30;99.90;;;;;;8380239;28;19932;-70
2023/04/29 10:28:32;;;;;;;;;;;16.50;99.90;;;;;;8382303;28;19928;-70
2023/04/29 10:32:35;;;;;;;;;;;16.80;99.90;;;;;;8389328;28;20445;-71
2023/04/29 10:36:50;;;;;;;;;;;17.50;99.90;;;;;;8404622;28;19924;-71
2023/04/29 10:40:52;;;;;;;;;;;18.10;99.90;;;;;;8396702;28;20372;-71
2023/04/29 10:45:13;;;;;;;;;;;18.30;99.90;;;;;;8390478;28;19990;-71
2023/04/29 10:49:15;;;;;;;;;;;18.20;99.90;;;;;;8388167;28;19939;-71
2023/04/29 10:53:20;;;;;;;;;;;17.90;99.90;;;;;;8377459;28;19924;-71
2023/04/29 10:57:23;;;;;;;;;;;17.90;99.90;;;;;;8353813;28;19928;-71
2023/04/29 11:01:40;;;;;;;;;;;18.30;99.90;;;;;;8375180;28;20370;-71
2023/04/29 11:05:41;;;;;;;;;;;19.00;99.90;;;;;;8359531;28;20775;-71
2023/04/29 11:09:43;;;;;;;;;;;19.70;99.90;;;;;;8373126;28;19929;-71
2023/04/29 11:13:45;;;;;;;;;;;20.10;99.90;;;;;;8386949;28;19935;-70
2023/04/29 11:17:47;;;;;;;;;;;20.00;99.90;;;;;;8383471;28;19924;-70
2023/04/29 11:22:02;;;;;;;;;;;20.20;99.90;;;;;;8392036;28;19928;-71
2023/04/29 11:26:03;;;;;;;;;;;20.60;99.90;;;;;;8385317;28;20265;-71
2023/04/29 11:30:06;;;;;;;;;;;21.20;99.90;;;;;;8405240;28;20005;-71
2023/04/29 11:34:08;;;;;;;;;;;21.20;99.90;;;;;;8395142;28;19935;-71
2023/04/29 11:38:10;;;;;;;;;;;20.40;99.90;;;;;;8393396;28;19930;-71
2023/04/29 11:42:12;;;;;;;;;;;20.10;99.90;;;;;;8369517;28;19929;-71
2023/04/29 11:46:14;;;;;;;;;;;20.00;99.90;;;;;;8374722;28;20037;-71
2023/04/29 11:50:18;;;;;;;;;;;19.70;99.90;;;;;;8342863;28;19925;-71
2023/04/29 11:54:21;;;;;;;;;;;19.60;99.90;;;;;;8363195;28;19925;-71
2023/04/29 11:58:23;;;;;;;;;;;20.10;99.90;;;;;;8361920;28;19956;-71
2023/04/29 12:02:28;;;;;;;;;;;21.00;99.90;;;;;;8357423;28;19933;-71
2023/04/29 12:06:30;;;;;;;;;;;21.70;99.90;;;;;;8361515;28;20262;-71
2023/04/29 12:10:35;;;;;;;;;;;22.00;99.90;;;;;;8359381;28;20274;-71
2023/04/29 12:14:37;;;;;;;;;;;22.00;99.90;;;;;;8365918;28;19925;-71
2023/04/29 12:18:38;;;;;;;;;;;21.60;99.90;;;;;;8358837;28;19925;-71
2023/04/29 12:22:42;;;;;;;;;;;21.40;99.90;;;;;;8360009;28;19924;-71
2023/04/29 12:26:44;;;;;;;;;;;21.40;99.90;;;;;;8359964;28;19932;-71
2023/04/29 12:30:46;;;;;;;;;;;21.30;99.90;;;;;;8372495;28;20342;-71
2023/04/29 12:34:49;;;;;;;;;;;21.10;99.90;;;;;;8354723;28;19964;-71
2023/04/29 12:38:53;;;;;;;;;;;20.90;99.90;;;;;;8359612;28;20019;-71
2023/04/29 12:42:55;;;;;;;;;;;20.90;99.90;;;;;;8361803;28;19939;-71
2023/04/29 12:47:05;;;;;;;;;;;20.90;99.90;;;;;;8358714;28;20312;-71
2023/04/29 12:51:08;;;;;;;;;;;20.60;99.90;;;;;;8356177;28;19924;-71
2023/04/29 12:55:10;;;;;;;;;;;20.60;99.90;;;;;;8359426;28;19940;-71
2023/04/29 12:59:11;;;;;;;;;;;20.90;99.90;;;;;;8366233;28;19956;-71
2023/04/29 13:03:13;;;;;;;;;;;21.40;99.90;;;;;;8359736;28;20360;-71
2023/04/29 13:07:15;;;;;;;;;;;21.50;99.90;;;;;;8352274;28;19931;-72
2023/04/29 13:11:17;;;;;;;;;;;21.50;99.90;;;;;;8359048;28;19925;-71
2023/04/29 13:15:20;;;;;;;;;;;21.60;99.90;;;;;;8372847;28;19924;-72
2023/04/29 13:19:22;;;;;;;;;;;21.50;99.90;;;;;;8350643;28;19960;-71
2023/04/29 13:23:26;;;;;;;;;;;21.20;99.90;;;;;;8362686;28;19963;-71
2023/04/29 13:27:28;;;;;;;;;;;20.80;99.90;;;;;;8353206;28;20015;-71
2023/04/29 13:31:29;;;;;;;;;;;20.60;99.90;;;;;;8356614;28;19924;-71
2023/04/29 13:35:34;;;;;;;;;;;20.70;99.90;;;;;;8361697;28;20331;-71
2023/04/29 13:39:36;;;;;;;;;;;20.90;99.90;;;;;;8358949;28;19960;-71
2023/04/29 13:43:39;;;;;;;;;;;21.10;99.90;;;;;;8344565;28;20372;-71
2023/04/29 13:47:41;;;;;;;;;;;21.40;99.90;;;;;;8357418;28;19955;-71
2023/04/29 13:52:02;;;;;;;;;;;21.90;99.90;;;;;;8359368;28;20008;-72
2023/04/29 13:56:27;;;;;;;;;;;22.00;99.90;;;;;;8359541;28;19931;-72
2023/04/29 14:00:48;;;;;;;;;;;22.00;99.90;;;;;;8369008;28;19986;-72
2023/04/29 14:04:53;;;;;;;;;;;22.80;99.90;;;;;;8340042;28;20315;-72
2023/04/29 14:08:55;;;;;;;;;;;23.80;99.90;;;;;;8360989;28;19939;-72
2023/04/29 14:12:57;;;;;;;;;;;25.00;99.90;;;;;;8361716;28;19964;-72
2023/04/29 14:17:00;;;;;;;;;;;25.90;99.90;;;;;;8379195;28;19933;-72
2023/04/29 14:21:02;;;;;;;;;;;26.50;99.90;;;;;;8364258;28;19932;-72
2023/04/29 14:25:03;;;;;;;;;;;26.80;99.90;;;;;;8362172;28;20336;-72
2023/04/29 14:29:06;;;;;;;;;;;27.20;99.90;;;;;;8364371;28;19928;-72
2023/04/29 14:33:07;;;;;;;;;;;27.10;99.90;;;;;;8361266;28;20031;-72
2023/04/29 14:37:09;;;;;;;;;;;26.40;99.90;;;;;;8364852;28;20023;-72
2023/04/29 14:41:11;;;;;;;;;;;26.40;99.90;;;;;;8361780;28;19929;-72
2023/04/29 14:45:12;;;;;;;;;;;26.70;99.90;;;;;;8361778;28;19925;-72
2023/04/29 14:49:14;;;;;;;;;;;26.70;99.90;;;;;;8362038;28;19924;-72
2023/04/29 14:53:16;;;;;;;;;;;26.90;99.90;;;;;;8365214;28;19928;-71
2023/04/29 14:57:17;;;;;;;;;;;27.30;99.90;;;;;;8363231;28;19971;-71
2023/04/29 15:01:19;;;;;;;;;;;27.60;99.90;;;;;;8360401;28;20296;-72
2023/04/29 15:05:21;;;;;;;;;;;27.90;99.90;;;;;;8362976;28;19928;-72
2023/04/29 15:09:23;;;;;;;;;;;28.20;99.90;;;;;;8377743;28;20300;-72
2023/04/29 15:13:25;;;;;;;;;;;28.60;99.90;;;;;;8365292;28;19936;-72
2023/04/29 15:17:27;;;;;;;;;;;29.10;99.90;;;;;;8362718;28;20410;-72
2023/04/29 15:21:29;;;;;;;;;;;29.50;99.90;;;;;;8374518;28;19965;-72
2023/04/29 15:25:33;;;;;;;;;;;29.70;99.90;;;;;;8360610;28;20018;-72
2023/04/29 15:29:37;;;;;;;;;;;29.80;99.90;;;;;;8362016;28;19932;-72
2023/04/29 15:33:39;;;;;;;;;;;29.70;99.90;;;;;;8361438;28;19951;-72
2023/04/29 15:37:40;;;;;;;;;;;29.70;99.90;;;;;;8362806;28;19924;-72
2023/04/29 15:41:42;;;;;;;;;;;29.50;99.90;;;;;;8359730;28;19964;-72
2023/04/29 15:45:43;;;;;;;;;;;29.20;99.90;;;;;;8359294;28;20027;-72
2023/04/29 15:49:45;;;;;;;;;;;29.30;99.90;;;;;;8358361;28;19928;-71
2023/04/29 15:53:47;;;;;;;;;;;29.80;99.90;;;;;;8361856;28;20020;-72
2023/04/29 15:57:50;;;;;;;;;;;30.20;99.90;;;;;;8358192;28;19933;-72
2023/04/29 16:01:51;;;;;;;;;;;30.50;99.90;;;;;;8344725;28;20291;-72
2023/04/29 16:05:53;;;;;;;;;;;30.60;99.90;;;;;;8357951;28;20292;-72
2023/04/29 16:09:55;;;;;;;;;;;30.80;99.90;;;;;;8352802;28;19925;-72
2023/04/29 16:13:56;;;;;;;;;;;31.10;99.90;;;;;;8362212;28;20338;-72
2023/04/29 16:17:59;;;;;;;;;;;31.40;99.90;;;;;;8355970;28;19944;-72
2023/04/29 16:22:01;;;;;;;;;;;31.50;99.90;;;;;;8358018;28;19929;-72
2023/04/29 16:26:03;;;;;;;;;;;31.60;99.90;;;;;;8361534;28;19974;-72
2023/04/29 16:30:05;;;;;;;;;;;31.70;99.90;;;;;;8357327;28;19936;-72
2023/04/29 16:34:06;;;;;;;;;;;31.50;99.90;;;;;;8356543;28;19928;-72
2023/04/29 16:38:08;;;;;;;;;;;31.30;99.90;;;;;;8381379;28;19931;-72
2023/04/29 16:42:10;;;;;;;;;;;31.20;99.90;;;;;;8361599;28;19960;-72
2023/04/29 16:46:11;;;;;;;;;;;31.20;99.90;;;;;;8370974;28;19975;-73
2023/04/29 16:50:13;;;;;;;;;;;31.20;99.90;;;;;;8377167;28;19925;-72
2023/04/29 16:54:15;;;;;;;;;;;31.30;99.90;;;;;;8376171;28;19925;-72
2023/04/29 16:58:16;;;;;;;;;;;31.20;99.90;;;;;;8358104;28;20195;-72
2023/04/29 17:02:18;;;;;;;;;;;30.90;99.90;;;;;;8362490;28;20347;-72
2023/04/29 17:06:20;;;;;;;;;;;30.70;99.90;;;;;;8360499;28;20478;-72
2023/04/29 17:10:22;;;;;;;;;;;30.50;99.90;;;;;;8361141;28;20423;-72
2023/04/29 17:14:23;;;;;;;;;;;30.50;99.90;;;;;;8357657;28;19924;-72
2023/04/29 17:18:25;;;;;;;;;;;30.40;99.90;;;;;;8359591;28;19931;-72
2023/04/29 17:22:27;;;;;;;;;;;30.30;99.90;;;;;;8355537;28;19933;-72
2023/04/29 17:26:30;;;;;;;;;;;30.00;99.90;;;;;;8358967;28;19931;-73
2023/04/29 17:30:34;;;;;;;;;;;29.80;99.90;;;;;;8356055;28;19924;-72
2023/04/29 17:34:36;;;;;;;;;;;29.40;95.90;;;;;;8358961;28;20027;-72
2023/04/29 17:38:38;;;;;;;;;;;29.10;94.10;;;;;;8358556;28;19925;-72
2023/04/29 17:42:40;;;;;;;;;;;28.60;97.90;;;;;;8358583;28;19932;-73
2023/04/29 17:46:42;;;;;;;;;;;28.30;99.40;;;;;;8359870;28;19931;-72
2023/04/29 17:50:44;;;;;;;;;;;28.00;98.20;;;;;;8340960;28;19931;-72
2023/04/29 17:54:47;;;;;;;;;;;27.80;95.90;;;;;;8372620;28;19924;-72
2023/04/29 17:58:49;;;;;;;;;;;27.20;91.00;;;;;;8359947;28;19971;-72
2023/04/29 18:02:50;;;;;;;;;;;26.50;93.00;;;;;;8362454;28;19952;-72
2023/04/29 18:06:52;;;;;;;;;;;25.40;90.40;;;;;;8352617;28;19925;-71
2023/04/29 18:10:54;;;;;;;;;;;24.30;90.00;;;;;;8362006;28;20362;-71
2023/04/29 18:14:56;;;;;;;;;;;23.40;88.00;;;;;;8365293;28;19932;-71
2023/04/29 18:18:57;;;;;;;;;;;22.70;86.50;;;;;;8365819;28;19933;-71
2023/04/29 18:22:59;;;;;;;;;;;22.20;90.30;;;;;;8370110;28;19930;-71
2023/04/29 18:27:01;;;;;;;;;;;21.80;82.30;;;;;;8358838;28;19983;-71
2023/04/29 18:31:02;;;;;;;;;;;21.30;77.90;;;;;;8357237;28;20291;-72
2023/04/29 18:35:04;;;;;;;;;;;20.80;81.90;;;;;;8360143;28;20389;-72
2023/04/29 18:39:06;;;;;;;;;;;20.50;82.70;;;;;;8356230;28;19960;-71
2023/04/29 18:43:08;;;;;;;;;;;20.20;83.90;;;;;;8375608;28;20396;-71
2023/04/29 18:47:10;;;;;;;;;;;19.90;84.30;;;;;;8359602;28;20366;-71
2023/04/29 18:51:11;;;;;;;;;;;19.70;83.70;;;;;;8356736;28;20343;-71
2023/04/29 18:55:13;;;;;;;;;;;19.30;82.00;;;;;;8362260;28;19990;-71
2023/04/29 18:59:18;;;;;;;;;;;19.10;83.60;;;;;;8351836;28;20329;-72
2023/04/29 19:03:20;;;;;;;;;;;18.90;82.40;;;;;;8360228;28;19934;-72
2023/04/29 19:07:21;;;;;;;;;;;18.70;81.70;;;;;;8359573;28;19939;-72
2023/04/29 19:11:25;;;;;;;;;;;18.50;81.90;;;;;;8361990;28;20292;-72
2023/04/29 19:15:27;;;;;;;;;;;18.30;81.00;;;;;;8362874;28;20300;-72
2023/04/29 19:19:29;;;;;;;;;;;18.20;82.40;;;;;;8356638;28;19935;-71
2023/04/29 19:23:31;;;;;;;;;;;18.10;80.70;;;;;;8359700;28;20847;-71
2023/04/29 19:27:32;;;;;;;;;;;17.90;81.10;;;;;;8368025;28;19933;-71
2023/04/29 19:31:34;;;;;;;;;;;17.80;80.70;;;;;;8362956;28;20020;-73
2023/04/29 19:35:36;;;;;;;;;;;17.60;80.80;;;;;;8347124;28;19925;-71
2023/04/29 19:39:37;;;;;;;;;;;17.50;80.40;;;;;;8360433;28;19943;-71
2023/04/29 19:43:39;;;;;;;;;;;17.30;81.20;;;;;;8360928;28;19925;-71
2023/04/29 19:47:41;;;;;;;;;;;17.10;80.30;;;;;;8363601;28;19955;-71
2023/04/29 19:51:42;;;;;;;;;;;16.90;80.30;;;;;;8355169;28;20393;-71
2023/04/29 20:00:41;;;;;;;;;;;16.50;80.90;;;;;;8359080;28;19927;-71
2023/04/29 20:15:04;;;;;;;;;;;16.00;81.00;;;;;;8327096;28;19940;-71
2023/04/29 20:19:06;;;;;;;;;;;15.90;81.50;;;;;;8328594;28;19999;-71
2023/04/29 20:23:08;;;;;;;;;;;15.90;81.80;;;;;;8330084;28;19965;-71
2023/04/29 20:27:10;;;;;;;;;;;15.70;82.10;;;;;;8325315;28;20482;-71
2023/04/29 20:31:11;;;;;;;;;;;15.70;82.30;;;;;;8322639;28;20020;-71
2023/04/29 20:35:31;;;;;;;;;;;15.60;82.30;;;;;;8318563;28;19931;-71
2023/04/29 20:39:33;;;;;;;;;;;15.50;82.50;;;;;;8328655;28;19931;-71
2023/04/29 20:43:35;;;;;;;;;;;15.40;82.60;;;;;;8322770;28;19925;-71
2023/04/29 20:47:37;;;;;;;;;;;15.40;82.00;;;;;;8341449;28;19925;-71
2023/04/29 20:51:38;;;;;;;;;;;15.40;82.30;;;;;;8329843;28;20419;-71
2023/04/29 20:55:40;;;;;;;;;;;15.30;82.10;;;;;;8326614;28;19929;-71
2023/04/29 21:14:53;;;;;;;;;;;15.10;82.00;;;;;;8375087;28;19967;-71
2023/04/29 21:18:54;;;;;;;;;;;14.90;81.50;;;;;;8394945;28;20683;-71
2023/04/29 21:22:56;;;;;;;;;;;14.80;82.20;;;;;;8391587;28;19995;-72
2023/04/29 21:26:57;;;;;;;;;;;14.70;81.60;;;;;;8403793;28;19934;-71
2023/04/29 21:30:59;;;;;;;;;;;14.50;81.60;;;;;;8382131;28;19928;-71
2023/04/29 21:35:01;;;;;;;;;;;14.40;81.00;;;;;;8395381;28;19959;-71
2023/04/29 21:39:03;;;;;;;;;;;14.30;80.80;;;;;;8397114;28;19928;-71
2023/04/29 21:43:04;;;;;;;;;;;14.20;80.90;;;;;;8399219;28;19960;-71
2023/04/29 21:47:06;;;;;;;;;;;14.00;81.40;;;;;;8398957;28;19970;-71
2023/04/29 21:51:08;;;;;;;;;;;13.90;81.30;;;;;;8401007;28;19986;-71
2023/04/29 22:10:41;;;;;;;;;;;13.00;81.40;;;;;;8398497;28;19923;-71
2023/04/29 22:14:43;;;;;;;;;;;12.80;83.30;;;;;;8409923;28;19970;-71
2023/04/29 22:18:45;;;;;;;;;;;12.70;82.50;;;;;;8394051;28;20431;-71
2023/04/29 22:22:47;;;;;;;;;;;12.60;82.10;;;;;;8386101;28;19925;-71
2023/04/29 22:26:48;;;;;;;;;;;12.60;82.30;;;;;;8400064;28;19972;-71
2023/04/29 22:51:03;;;;;;;;;;;12.00;80.90;;;;;;8400198;28;19935;-71
2023/04/29 23:05:12;;;;;;;;;;;11.80;80.70;;;;;;8379497;28;19974;-71
2023/04/29 23:09:13;;;;;;;;;;;11.70;80.40;;;;;;8407050;28;19947;-71
2023/04/29 23:13:15;;;;;;;;;;;11.60;80.90;;;;;;8389250;28;20293;-71
2023/04/29 23:17:17;;;;;;;;;;;11.50;81.20;;;;;;8380344;28;20257;-71
2023/04/29 23:21:19;;;;;;;;;;;11.40;81.30;;;;;;8413013;28;19950;-71
2023/04/29 23:25:20;;;;;;;;;;;11.30;80.80;;;;;;8399972;28;19972;-71
2023/04/29 23:29:22;;;;;;;;;;;11.30;81.10;;;;;;8399225;28;19974;-71
2023/04/29 23:33:24;;;;;;;;;;;11.20;80.40;;;;;;8396672;28;19971;-71
2023/04/29 23:37:25;;;;;;;;;;;11.10;80.60;;;;;;8397897;28;19959;-71
2023/04/29 23:41:27;;;;;;;;;;;11.00;80.50;;;;;;8395627;28;19925;-71
2023/04/29 23:50:31;;;;;;;;;;;10.90;81.00;;;;;;8401022;28;20434;-71
2023/04/29 23:54:33;;;;;;;;;;;10.80;80.40;;;;;;8405628;28;19923;-71
2023/04/29 23:58:35;;;;;;;;;;;10.80;80.00;;;;;;8411029;28;19928;-71
